createdAt,value
2022-08-23T00:02:56.890Z,6.38
2022-08-23T00:06:19.261Z,7.80
2022-08-23T00:09:41.134Z,5.55
2022-08-23T00:13:03.173Z,7.43
2022-08-23T00:16:25.153Z,4.85
2022-08-23T00:19:48.020Z,8.88
2022-08-23T00:23:10.404Z,5.75
2022-08-23T00:27:04.844Z,4.95
2022-08-23T00:30:26.592Z,3.33
2022-08-23T00:33:48.350Z,5.22
2022-08-23T00:37:10.957Z,6.20
2022-08-23T00:40:32.817Z,6.63
2022-08-23T00:44:14.097Z,4.47
2022-08-23T00:47:43.130Z,4.35
2022-08-23T00:51:16.046Z,3.88
2022-08-23T00:54:41.270Z,5.78
2022-08-23T00:58:03.774Z,4.57
2022-08-23T01:01:26.582Z,8.45
2022-08-23T01:04:56.853Z,4.82
2022-08-23T01:08:21.169Z,8.48
2022-08-23T01:11:56.313Z,5.07
2022-08-23T01:15:39.055Z,6.35
2022-08-23T01:19:04.612Z,10.57
2022-08-23T01:22:52.569Z,4.15
2022-08-23T01:26:21.541Z,3.08
2022-08-23T01:29:44.876Z,5.20
2022-08-23T01:33:07.399Z,3.97
2022-08-23T01:36:30.606Z,4.18
2022-08-23T01:39:52.841Z,4.03
2022-08-23T01:43:15.806Z,3.53
2022-08-23T01:46:38.144Z,5.50
2022-08-23T01:50:00.710Z,5.82
2022-08-23T01:53:24.586Z,6.30
2022-08-23T01:56:46.594Z,9.10
2022-08-23T02:00:10.954Z,5.82
2022-08-23T02:03:37.093Z,9.18
2022-08-23T02:06:59.100Z,5.15
2022-08-23T02:10:21.529Z,7.55
2022-08-23T02:13:45.318Z,4.65
2022-08-23T02:17:08.542Z,9.05
2022-08-23T02:20:31.169Z,6.15
2022-08-23T02:23:53.088Z,8.68
2022-08-23T02:27:16.144Z,12.60
2022-08-23T02:30:39.991Z,5.30
2022-08-23T02:34:05.875Z,6.30
2022-08-23T02:37:28.020Z,4.28
2022-08-23T02:40:53.041Z,4.70
2022-08-23T02:44:24.380Z,5.38
2022-08-23T02:47:46.388Z,5.78
2022-08-23T02:51:13.878Z,3.22
2022-08-23T02:54:36.118Z,6.28
2022-08-23T02:57:59.054Z,6.28
2022-08-23T03:01:25.982Z,5.68
2022-08-23T03:04:49.867Z,5.22
2022-08-23T03:08:12.348Z,4.82
2022-08-23T03:11:45.393Z,4.00
2022-08-23T03:15:09.562Z,5.72
2022-08-23T03:18:31.808Z,11.82
2022-08-23T03:21:56.118Z,3.50
2022-08-23T03:25:17.956Z,5.15
2022-08-23T03:28:54.939Z,4.32
2022-08-23T03:32:21.491Z,9.80
2022-08-23T03:35:47.676Z,4.63
2022-08-23T03:39:09.504Z,4.85
2022-08-23T03:42:31.294Z,4.20
2022-08-23T03:45:53.427Z,6.68
2022-08-23T03:49:16.646Z,5.60
2022-08-23T03:52:44.749Z,3.60
2022-08-23T03:56:06.798Z,8.23
2022-08-23T03:59:30.021Z,6.32
2022-08-23T04:02:51.909Z,6.63
2022-08-23T04:06:16.056Z,3.75
2022-08-23T04:09:38.445Z,6.78
2022-08-23T04:13:00.338Z,10.88
2022-08-23T04:16:22.233Z,7.13
2022-08-23T04:19:44.352Z,6.97
2022-08-23T04:23:06.815Z,4.57
2022-08-23T04:26:40.335Z,3.90
2022-08-23T04:30:02.213Z,6.55
2022-08-23T04:33:25.164Z,4.03
2022-08-23T04:36:51.923Z,4.65
2022-08-23T04:40:36.417Z,7.47
2022-08-23T04:43:58.193Z,6.50
2022-08-23T04:47:21.935Z,5.28
2022-08-23T04:50:45.248Z,4.90
2022-08-23T04:54:10.539Z,4.57
2022-08-23T04:57:46.605Z,7.45
2022-08-23T05:01:16.006Z,6.03
2022-08-23T05:04:39.405Z,4.28
2022-08-23T05:08:01.440Z,8.00
2022-08-23T05:11:23.814Z,5.60
2022-08-23T05:14:47.856Z,5.95
2022-08-23T05:18:10.636Z,5.20
2022-08-23T05:21:34.101Z,5.65
2022-08-23T05:24:56.743Z,4.88
2022-08-23T05:28:25.768Z,5.10
2022-08-23T05:31:47.652Z,4.80
2022-08-23T05:35:12.689Z,6.45
2022-08-23T05:38:39.524Z,7.32
2022-08-23T05:42:03.217Z,3.67
2022-08-23T05:45:25.532Z,5.85
2022-08-23T05:48:50.943Z,3.72
2022-08-23T05:52:15.147Z,5.95
2022-08-23T05:55:38.874Z,6.28
2022-08-23T05:59:15.722Z,5.47
2022-08-23T06:02:38.272Z,10.40
2022-08-23T06:06:01.319Z,21.10
2022-08-23T06:09:23.330Z,17.00
2022-08-23T06:12:45.137Z,22.15
2022-08-23T06:16:14.706Z,22.60
2022-08-23T06:19:38.160Z,11.40
2022-08-23T06:23:26.178Z,8.05
2022-08-23T06:26:48.165Z,9.10
2022-08-23T06:30:11.981Z,9.00
2022-08-23T06:33:44.201Z,10.18
2022-08-23T06:37:25.259Z,15.95
2022-08-23T06:41:15.993Z,8.23
2022-08-23T06:44:45.582Z,8.90
2022-08-23T06:48:14.881Z,11.75
2022-08-23T06:51:41.733Z,10.95
2022-08-23T06:55:16.051Z,9.73
2022-08-23T06:58:49.258Z,12.13
2022-08-23T07:02:26.078Z,7.75
2022-08-23T07:05:51.022Z,7.05
2022-08-23T07:09:19.787Z,10.05
2022-08-23T07:12:42.870Z,10.80
2022-08-23T07:16:05.265Z,10.32
2022-08-23T07:19:31.627Z,11.73
2022-08-23T07:22:53.839Z,13.50
2022-08-23T07:26:16.877Z,8.90
2022-08-23T07:29:40.326Z,10.23
2022-08-23T07:33:02.649Z,12.68
2022-08-23T07:36:34.145Z,10.30
2022-08-23T07:39:58.499Z,10.57
2022-08-23T07:43:21.258Z,12.73
2022-08-23T07:46:44.555Z,11.00
2022-08-23T07:50:07.103Z,11.98
2022-08-23T07:53:37.609Z,10.93
2022-08-23T07:57:01.407Z,12.52
2022-08-23T08:00:43.920Z,8.48
2022-08-23T08:04:24.728Z,6.85
2022-08-23T08:07:46.599Z,11.32
2022-08-23T08:11:10.858Z,7.53
2022-08-23T08:14:32.998Z,8.18
2022-08-23T08:17:58.451Z,8.77
2022-08-23T08:21:41.924Z,9.20
2022-08-23T08:25:14.566Z,9.10
2022-08-23T08:28:38.176Z,7.95
2022-08-23T08:32:01.116Z,10.60
2022-08-23T08:35:24.124Z,9.27
2022-08-23T08:38:47.996Z,9.90
2022-08-23T08:42:25.348Z,27.35
2022-08-23T08:45:59.130Z,7.85
2022-08-23T08:49:36.046Z,5.82
2022-08-23T08:53:02.837Z,6.03
2022-08-23T08:56:49.587Z,2.75
2022-08-23T09:00:24.320Z,4.82
2022-08-23T09:03:46.979Z,3.97
2022-08-23T09:07:22.885Z,4.78
2022-08-23T09:11:16.434Z,9.45
2022-08-23T09:15:06.634Z,5.03
2022-08-23T09:18:34.188Z,2.50
2022-08-23T09:22:00.508Z,9.15
2022-08-23T09:25:22.460Z,7.07
2022-08-23T09:28:56.374Z,7.30
2022-08-23T09:32:33.736Z,11.77
2022-08-23T09:36:06.037Z,6.85
2022-08-23T09:39:33.184Z,7.43
2022-08-23T09:43:25.877Z,3.88
2022-08-23T09:46:48.591Z,4.13
2022-08-23T09:50:47.699Z,4.25
2022-08-23T09:54:32.143Z,2.60
2022-08-23T09:57:54.760Z,1.95
2022-08-23T10:01:24.773Z,2.75
2022-08-23T10:05:02.764Z,2.72
2022-08-23T10:08:52.999Z,1.75
2022-08-23T10:12:15.737Z,8.52
2022-08-23T10:15:44.296Z,4.45
2022-08-23T10:19:20.067Z,2.15
2022-08-23T10:23:16.373Z,6.15
2022-08-23T10:27:36.977Z,4.18
2022-08-23T10:31:13.491Z,12.07
2022-08-23T10:34:49.816Z,4.70
2022-08-23T10:38:36.054Z,4.43
2022-08-23T10:41:59.661Z,4.97
2022-08-23T10:45:29.440Z,8.10
2022-08-23T10:48:57.834Z,7.35
2022-08-23T10:52:33.007Z,4.85
2022-08-23T10:56:05.763Z,6.18
2022-08-23T10:59:36.826Z,5.47
2022-08-23T11:03:33.095Z,6.53
2022-08-23T11:06:59.031Z,4.13
2022-08-23T11:10:39.124Z,5.63
2022-08-23T11:14:04.139Z,6.85
2022-08-23T11:17:40.652Z,2.72
2022-08-23T11:21:28.394Z,3.40
2022-08-23T11:25:04.042Z,4.07
2022-08-23T11:28:46.053Z,3.60
2022-08-23T11:32:33.869Z,3.30
2022-08-23T11:36:09.598Z,2.80
2022-08-23T11:39:57.989Z,1.90
2022-08-23T11:43:25.228Z,4.40
2022-08-23T11:46:54.135Z,5.57
2022-08-23T11:50:40.181Z,2.15
2022-08-23T11:54:22.100Z,2.70
2022-08-23T11:58:19.569Z,3.17
2022-08-23T12:01:43.297Z,5.13
2022-08-23T12:05:24.194Z,6.28
2022-08-23T12:08:48.678Z,2.63
2022-08-23T12:12:23.247Z,1.30
2022-08-23T12:16:07.051Z,2.72
2022-08-23T12:19:48.884Z,3.95
2022-08-23T12:23:17.987Z,4.07
2022-08-23T12:26:59.190Z,1.25
2022-08-23T12:30:23.411Z,3.80
2022-08-23T12:34:05.496Z,1.13
2022-08-23T12:37:45.937Z,2.60
2022-08-23T12:41:21.255Z,1.08
2022-08-23T12:44:45.762Z,4.32
2022-08-23T12:48:10.847Z,11.02
2022-08-23T12:51:39.021Z,1.63
2022-08-23T12:55:01.557Z,5.95
2022-08-23T12:58:33.219Z,6.22
2022-08-23T13:01:55.656Z,1.30
2022-08-23T13:05:47.530Z,0.82
2022-08-23T13:09:15.019Z,5.15
2022-08-23T13:12:37.699Z,1.52
2022-08-23T13:16:01.784Z,5.07
2022-08-23T13:19:30.607Z,2.05
2022-08-23T13:23:10.294Z,3.80
2022-08-23T13:26:37.560Z,5.85
2022-08-23T13:30:10.352Z,3.28
2022-08-23T13:33:32.432Z,4.70
2022-08-23T13:36:58.596Z,2.22
2022-08-23T13:40:30.989Z,4.38
2022-08-23T13:43:53.184Z,3.10
2022-08-23T13:47:23.963Z,2.63
2022-08-23T13:50:46.076Z,1.95
2022-08-23T13:54:14.198Z,5.88
2022-08-23T13:57:39.391Z,1.15
2022-08-23T14:01:03.841Z,2.42
2022-08-23T14:04:25.507Z,3.53
2022-08-23T14:07:52.620Z,1.02
2022-08-23T14:11:15.889Z,1.92
2022-08-23T14:14:38.018Z,0.98
2022-08-23T14:17:59.974Z,1.48
2022-08-23T14:21:21.676Z,2.55
2022-08-23T14:24:45.404Z,4.30
2022-08-23T14:28:07.324Z,2.90
2022-08-23T14:31:29.077Z,1.20
2022-08-23T14:34:51.139Z,1.85
2022-08-23T14:38:14.964Z,3.80
2022-08-23T14:41:37.245Z,1.40
2022-08-23T14:44:58.999Z,4.78
2022-08-23T14:48:20.874Z,3.83
2022-08-23T14:51:46.155Z,1.58
2022-08-23T14:55:08.744Z,1.08
2022-08-23T14:58:31.399Z,0.68
2022-08-23T15:01:54.093Z,2.30
2022-08-23T15:05:16.872Z,3.25
2022-08-23T15:08:38.752Z,2.65
2022-08-23T15:15:42.234Z,0.82
2022-08-23T15:19:04.442Z,2.30
2022-08-23T15:22:26.215Z,2.75
2022-08-23T15:25:48.033Z,1.92
2022-08-23T15:29:09.896Z,5.35
2022-08-23T15:32:32.516Z,2.67
2022-08-23T15:35:55.460Z,1.92
2022-08-23T15:39:17.921Z,1.63
2022-08-23T15:42:39.781Z,1.08
2022-08-23T15:46:05.686Z,4.30
2022-08-23T15:49:31.732Z,3.88
2022-08-23T15:52:55.862Z,2.42
2022-08-23T15:56:26.403Z,1.67
2022-08-23T15:59:48.314Z,0.63
2022-08-23T16:03:20.026Z,1.50
2022-08-23T16:06:42.584Z,2.55
2022-08-23T16:10:08.776Z,5.72
2022-08-23T16:13:30.838Z,1.75
2022-08-23T16:16:55.534Z,0.40
2022-08-23T16:20:17.655Z,0.98
2022-08-23T16:23:40.093Z,1.00
2022-08-23T16:27:01.983Z,2.13
2022-08-23T16:30:24.224Z,0.80
2022-08-23T16:33:47.800Z,0.82
2022-08-23T16:37:09.757Z,1.35
2022-08-23T16:40:31.681Z,2.70
2022-08-23T16:43:53.527Z,1.75
2022-08-23T16:47:16.833Z,0.60
2022-08-23T16:50:38.627Z,2.45
2022-08-23T16:54:02.665Z,2.35
2022-08-23T16:57:25.042Z,1.02
2022-08-23T17:00:47.234Z,0.80
2022-08-23T17:04:09.072Z,2.53
2022-08-23T17:07:30.815Z,1.58
2022-08-23T17:10:53.248Z,3.05
2022-08-23T17:14:15.478Z,1.73
2022-08-23T17:17:37.363Z,0.88
2022-08-23T17:20:59.335Z,0.77
2022-08-23T17:24:21.141Z,1.25
2022-08-23T17:27:46.281Z,1.23
2022-08-23T17:31:08.566Z,0.57
2022-08-23T17:34:30.342Z,1.98
2022-08-23T17:37:52.427Z,1.02
2022-08-23T17:41:14.191Z,3.70
2022-08-23T17:44:36.049Z,4.25
2022-08-23T17:47:58.052Z,5.88
2022-08-23T17:51:19.795Z,0.90
2022-08-23T17:54:42.427Z,2.53
2022-08-23T17:58:05.876Z,0.40
2022-08-23T18:01:27.872Z,2.95
2022-08-23T18:04:49.937Z,1.50
2022-08-23T18:08:11.627Z,4.07
2022-08-23T18:11:34.093Z,1.25
2022-08-23T18:14:56.275Z,1.25
2022-08-23T18:18:18.220Z,3.63
2022-08-23T18:21:40.861Z,3.92
2022-08-23T18:25:03.556Z,2.75
2022-08-23T18:28:25.342Z,2.78
2022-08-23T18:31:48.574Z,2.78
2022-08-23T18:35:11.022Z,1.42
2022-08-23T18:38:32.831Z,4.38
2022-08-23T18:41:54.853Z,1.50
2022-08-23T18:45:17.423Z,2.30
2022-08-23T18:48:41.216Z,3.00
2022-08-23T18:52:03.867Z,4.20
2022-08-23T18:55:25.541Z,3.50
2022-08-23T18:58:47.867Z,3.63
2022-08-23T19:02:10.648Z,4.47
2022-08-23T19:05:41.435Z,1.98
2022-08-23T19:09:05.483Z,3.75
2022-08-23T19:12:28.294Z,2.65
2022-08-23T19:15:51.425Z,4.13
2022-08-23T19:19:13.169Z,5.38
2022-08-23T19:22:34.908Z,3.05
2022-08-23T19:25:56.687Z,3.42
2022-08-23T19:29:20.433Z,2.40
2022-08-23T19:32:42.200Z,2.67
2022-08-23T19:36:05.431Z,5.68
2022-08-23T19:39:28.314Z,4.38
2022-08-23T19:42:50.181Z,2.63
2022-08-23T19:46:16.014Z,4.72
2022-08-23T19:49:37.966Z,2.95
2022-08-23T19:52:59.814Z,6.32
2022-08-23T19:56:22.378Z,3.20
2022-08-23T19:59:44.586Z,7.72
2022-08-23T20:03:06.360Z,2.83
2022-08-23T20:06:29.415Z,3.40
2022-08-23T20:09:51.387Z,8.48
2022-08-23T20:13:13.271Z,3.60
2022-08-23T20:16:35.338Z,2.58
2022-08-23T20:19:57.172Z,3.55
2022-08-23T20:23:37.682Z,1.80
2022-08-23T20:26:59.333Z,3.30
2022-08-23T20:30:21.162Z,6.65
2022-08-23T20:33:46.247Z,4.03
2022-08-23T20:37:08.202Z,5.45
2022-08-23T20:40:30.075Z,3.78
2022-08-23T20:43:51.961Z,5.13
2022-08-23T20:47:13.764Z,2.35
2022-08-23T20:50:35.635Z,3.45
2022-08-23T20:53:58.009Z,5.00
2022-08-23T20:57:19.781Z,2.92
2022-08-23T21:00:41.846Z,3.30
2022-08-23T21:04:03.824Z,2.17
2022-08-23T21:07:25.580Z,1.88
2022-08-23T21:10:49.715Z,1.83
2022-08-23T21:14:15.336Z,1.70
2022-08-23T21:17:39.177Z,2.97
2022-08-23T21:21:00.891Z,4.68
2022-08-23T21:24:22.596Z,3.53
2022-08-23T21:27:44.387Z,3.45
2022-08-23T21:31:11.851Z,4.43
2022-08-23T21:34:34.353Z,3.53
2022-08-23T21:37:57.165Z,4.38
2022-08-23T21:41:40.796Z,7.05
2022-08-23T21:45:02.883Z,7.70
2022-08-23T21:48:24.906Z,6.35
2022-08-23T21:51:46.979Z,3.67
2022-08-23T21:55:09.410Z,3.95
2022-08-23T21:58:31.167Z,5.93
2022-08-23T22:01:52.951Z,3.17
2022-08-23T22:05:15.753Z,3.35
2022-08-23T22:08:37.429Z,7.05
2022-08-23T22:12:00.335Z,2.83
2022-08-23T22:15:22.143Z,6.90
2022-08-23T22:18:44.022Z,6.70
2022-08-23T22:22:06.016Z,5.07
2022-08-23T22:25:27.966Z,6.90
2022-08-23T22:28:49.914Z,4.68
2022-08-23T22:32:11.717Z,6.28
2022-08-23T22:35:35.427Z,3.95
2022-08-23T22:38:58.467Z,4.28
2022-08-23T22:42:20.259Z,4.40
2022-08-23T22:46:00.453Z,3.10
2022-08-23T22:49:23.064Z,4.15
2022-08-23T22:52:48.487Z,6.05
2022-08-23T22:56:17.476Z,2.05
2022-08-23T22:59:39.234Z,2.35
2022-08-23T23:03:01.357Z,4.45
2022-08-23T23:06:26.622Z,3.13
2022-08-23T23:09:48.412Z,5.22
2022-08-23T23:13:10.226Z,2.25
2022-08-23T23:16:32.678Z,3.63
2022-08-23T23:20:12.689Z,4.22
2022-08-23T23:23:36.722Z,3.88
2022-08-23T23:26:59.317Z,3.30
2022-08-23T23:30:21.228Z,1.80
2022-08-23T23:33:45.183Z,3.63
2022-08-23T23:37:06.926Z,5.32
2022-08-23T23:40:28.825Z,7.53
2022-08-23T23:43:50.832Z,2.10
2022-08-23T23:47:12.604Z,3.78
2022-08-23T23:50:35.115Z,4.75
2022-08-23T23:53:58.441Z,5.75
2022-08-23T23:57:23.387Z,1.48
